Time;durP1;ratioP1;P1;durP2;ratioP2;P2;SDS_P1;SDS_P2;PMS_P1;PMS_P2;Temp;Humidity;BMP_temperature;BMP_pressure;BME280_temperature;BME280_humidity;BME280_pressure;Samples;Min_cycle;Max_cycle;Signal;HPM_P1;HPM_P2
2021/04/17 00:02:20;;;;;;;13.75;4.78;;;;;;;;;;5051920;28;20463;-63
2021/04/17 00:04:46;;;;;;;12.65;5.53;;;;;;;;;;5050710;28;20032;-63
2021/04/17 00:07:12;;;;;;;8.90;4.53;;;;;;;;;;5053018;28;20043;-64
2021/04/17 00:09:37;;;;;;;9.80;4.85;;;;;;;;;;5054429;28;20116;-64
2021/04/17 00:12:07;;;;;;;10.68;5.25;;;;;;;;;;5054465;28;20029;-65
2021/04/17 00:14:34;;;;;;;10.37;4.67;;;;;;;;;;5054265;28;20451;-64
2021/04/17 00:16:59;;;;;;;9.95;5.32;;;;;;;;;;5054800;28;20096;-64
2021/04/17 00:19:25;;;;;;;15.77;5.25;;;;;;;;;;5054389;28;20156;-64
2021/04/17 00:21:50;;;;;;;13.45;5.30;;;;;;;;;;5054438;28;20029;-64
2021/04/17 00:24:16;;;;;;;14.25;5.15;;;;;;;;;;5054329;28;20013;-64
2021/04/17 00:26:41;;;;;;;10.77;5.82;;;;;;;;;;5054559;28;20044;-64
2021/04/17 00:29:06;;;;;;;10.03;4.77;;;;;;;;;;5054111;28;20078;-64
2021/04/17 00:31:32;;;;;;;10.70;5.47;;;;;;;;;;5054514;28;20013;-64
2021/04/17 00:33:58;;;;;;;10.43;5.47;;;;;;;;;;5054355;28;20029;-63
2021/04/17 00:36:24;;;;;;;11.83;5.07;;;;;;;;;;5054317;28;20021;-64
2021/04/17 00:38:49;;;;;;;14.57;5.70;;;;;;;;;;5054231;28;20160;-63
2021/04/17 00:41:15;;;;;;;16.80;5.53;;;;;;;;;;5054154;28;20432;-63
2021/04/17 00:43:40;;;;;;;10.35;4.85;;;;;;;;;;5054117;28;20036;-63
2021/04/17 00:46:06;;;;;;;12.40;5.43;;;;;;;;;;5054098;28;20017;-64
2021/04/17 00:48:32;;;;;;;12.23;5.23;;;;;;;;;;5053793;28;20061;-63
2021/04/17 00:50:57;;;;;;;15.30;6.40;;;;;;;;;;5054198;28;20033;-63
2021/04/17 00:53:22;;;;;;;11.27;5.23;;;;;;;;;;5053564;28;20067;-63
2021/04/17 00:55:48;;;;;;;12.47;5.23;;;;;;;;;;5053869;28;20040;-63
2021/04/17 00:58:13;;;;;;;11.97;5.93;;;;;;;;;;5053493;28;20044;-64
2021/04/17 01:00:38;;;;;;;11.27;5.40;;;;;;;;;;5053993;28;20095;-64
2021/04/17 01:03:04;;;;;;;11.17;5.23;;;;;;;;;;5053495;28;20039;-63
2021/04/17 01:05:31;;;;;;;12.23;5.10;;;;;;;;;;5053790;28;20033;-63
2021/04/17 01:07:57;;;;;;;12.97;5.67;;;;;;;;;;5053677;28;20116;-63
2021/04/17 01:10:34;;;;;;;10.87;5.83;;;;;;;;;;5053682;28;20425;-63
2021/04/17 01:13:00;;;;;;;17.67;5.80;;;;;;;;;;5053610;28;20041;-64
2021/04/17 01:15:26;;;;;;;17.20;6.40;;;;;;;;;;5053620;28;20525;-63
2021/04/17 01:17:52;;;;;;;12.03;5.33;;;;;;;;;;5052797;28;20121;-63
2021/04/17 01:20:33;;;;;;;15.07;6.50;;;;;;;;;;5053536;28;20043;-64
2021/04/17 01:23:05;;;;;;;12.13;5.73;;;;;;;;;;5053412;28;20028;-63
2021/04/17 01:25:46;;;;;;;12.20;5.10;;;;;;;;;;5053552;28;20130;-63
2021/04/17 01:28:12;;;;;;;14.37;6.07;;;;;;;;;;5053225;28;20037;-63
2021/04/17 01:30:37;;;;;;;14.20;5.87;;;;;;;;;;5053702;28;20041;-63
2021/04/17 01:33:03;;;;;;;9.70;5.83;;;;;;;;;;5049795;28;20024;-64
2021/04/17 01:35:28;;;;;;;15.47;6.60;;;;;;;;;;5048730;28;20040;-63
2021/04/17 01:37:53;;;;;;;11.83;6.10;;;;;;;;;;5050283;28;20389;-63
2021/04/17 01:40:20;;;;;;;12.00;5.43;;;;;;;;;;5050252;28;20050;-63
2021/04/17 01:42:46;;;;;;;16.27;6.40;;;;;;;;;;5050500;28;20493;-64
2021/04/17 01:45:15;;;;;;;12.23;5.93;;;;;;;;;;5050693;28;20039;-64
2021/04/17 01:47:40;;;;;;;14.77;6.07;;;;;;;;;;5050663;28;20110;-63
2021/04/17 01:50:06;;;;;;;18.30;5.80;;;;;;;;;;5052553;28;20033;-63
2021/04/17 01:52:31;;;;;;;15.43;6.33;;;;;;;;;;5061188;28;20025;-63
2021/04/17 01:54:57;;;;;;;13.27;6.27;;;;;;;;;;5051759;28;20059;-63
2021/04/17 01:57:26;;;;;;;16.43;5.60;;;;;;;;;;5050132;28;20033;-63
2021/04/17 01:59:52;;;;;;;12.17;5.70;;;;;;;;;;5049649;28;20037;-64
2021/04/17 02:02:17;;;;;;;14.63;5.80;;;;;;;;;;5050016;28;20024;-63
2021/04/17 02:04:43;;;;;;;12.10;5.87;;;;;;;;;;5050198;28;20044;-63
2021/04/17 02:07:08;;;;;;;12.90;6.03;;;;;;;;;;5050280;28;20068;-64
2021/04/17 02:09:33;;;;;;;15.40;6.07;;;;;;;;;;5050462;28;20010;-64
2021/04/17 02:11:59;;;;;;;11.70;5.63;;;;;;;;;;5050356;28;20393;-65
2021/04/17 02:14:24;;;;;;;14.07;6.17;;;;;;;;;;5050045;28;20568;-63
2021/04/17 02:16:52;;;;;;;14.20;6.43;;;;;;;;;;5050102;28;20018;-63
2021/04/17 02:19:23;;;;;;;11.73;5.87;;;;;;;;;;5050036;28;20032;-64
2021/04/17 02:21:50;;;;;;;14.63;6.30;;;;;;;;;;5050010;28;20036;-64
2021/04/17 02:24:15;;;;;;;18.70;6.67;;;;;;;;;;5050889;28;20017;-64
2021/04/17 02:26:41;;;;;;;13.03;6.30;;;;;;;;;;5051345;28;20048;-63
2021/04/17 02:29:09;;;;;;;14.47;7.13;;;;;;;;;;5051548;28;20040;-63
2021/04/17 02:31:35;;;;;;;13.67;6.83;;;;;;;;;;5051679;28;20100;-64
2021/04/17 02:34:00;;;;;;;13.27;5.90;;;;;;;;;;5051826;28;20121;-63
2021/04/17 02:36:26;;;;;;;14.43;5.97;;;;;;;;;;5051899;28;20069;-64
2021/04/17 02:38:51;;;;;;;13.23;6.00;;;;;;;;;;5051857;28;20049;-63
2021/04/17 02:41:17;;;;;;;13.20;5.80;;;;;;;;;;5052627;28;20044;-63
2021/04/17 02:43:44;;;;;;;12.20;5.80;;;;;;;;;;5052587;28;20059;-63
2021/04/17 02:46:09;;;;;;;13.40;6.13;;;;;;;;;;5052746;28;20037;-63
2021/04/17 02:48:35;;;;;;;13.07;5.87;;;;;;;;;;5052509;28;20039;-64
2021/04/17 02:51:00;;;;;;;12.93;6.77;;;;;;;;;;5052662;28;20065;-63
2021/04/17 02:53:25;;;;;;;13.20;6.40;;;;;;;;;;5052367;28;20013;-63
2021/04/17 02:55:51;;;;;;;13.90;6.00;;;;;;;;;;5052581;28;20542;-63
2021/04/17 02:58:16;;;;;;;22.00;6.40;;;;;;;;;;5051075;28;20143;-63
2021/04/17 03:00:41;;;;;;;11.57;5.73;;;;;;;;;;5052579;28;20044;-63
2021/04/17 03:03:07;;;;;;;10.50;5.10;;;;;;;;;;5052415;28;20029;-64
2021/04/17 03:05:32;;;;;;;9.23;4.97;;;;;;;;;;5052103;28;20382;-63
2021/04/17 03:07:57;;;;;;;15.90;5.50;;;;;;;;;;5052418;28;20021;-63
2021/04/17 03:10:22;;;;;;;13.43;5.33;;;;;;;;;;5052374;28;20056;-63
2021/04/17 03:12:48;;;;;;;13.87;5.70;;;;;;;;;;5054663;28;20036;-63
2021/04/17 03:15:13;;;;;;;12.93;5.70;;;;;;;;;;5056119;28;20439;-63
2021/04/17 03:17:38;;;;;;;15.63;5.87;;;;;;;;;;5055776;28;20047;-63
2021/04/17 03:20:05;;;;;;;17.03;6.37;;;;;;;;;;5055452;28;20040;-63
2021/04/17 03:22:30;;;;;;;19.80;6.30;;;;;;;;;;5055407;28;20534;-63
2021/04/17 03:24:56;;;;;;;16.77;5.60;;;;;;;;;;5055661;28;20029;-63
2021/04/17 03:27:22;;;;;;;13.33;6.13;;;;;;;;;;5055701;28;20144;-63
2021/04/17 03:29:47;;;;;;;17.57;5.50;;;;;;;;;;5055546;28;20047;-63
2021/04/17 03:32:12;;;;;;;10.40;5.13;;;;;;;;;;5055674;28;20033;-63
2021/04/17 03:34:38;;;;;;;15.00;6.53;;;;;;;;;;5055378;28;20033;-63
2021/04/17 03:37:03;;;;;;;16.23;5.60;;;;;;;;;;5055507;28;20453;-63
2021/04/17 03:39:29;;;;;;;15.03;5.43;;;;;;;;;;5055094;28;20045;-63
2021/04/17 03:41:54;;;;;;;14.07;5.60;;;;;;;;;;5055418;28;20124;-63
2021/04/17 03:44:19;;;;;;;15.00;5.80;;;;;;;;;;5055259;28;20017;-63
2021/04/17 03:46:45;;;;;;;13.77;5.77;;;;;;;;;;5055139;28;20060;-63
2021/04/17 03:49:10;;;;;;;11.23;5.10;;;;;;;;;;5055217;28;20033;-63
2021/04/17 03:51:35;;;;;;;12.33;5.27;;;;;;;;;;5055530;28;20100;-63
2021/04/17 03:54:00;;;;;;;19.07;6.70;;;;;;;;;;5053897;28;20025;-63
2021/04/17 03:56:26;;;;;;;13.20;5.70;;;;;;;;;;5055056;28;20051;-63
2021/04/17 03:58:51;;;;;;;16.97;5.83;;;;;;;;;;5055073;28;20028;-63
2021/04/17 04:01:16;;;;;;;12.50;5.90;;;;;;;;;;5054719;28;20367;-64
2021/04/17 04:03:42;;;;;;;16.97;6.50;;;;;;;;;;5054992;28;20045;-63
2021/04/17 04:06:07;;;;;;;12.00;5.13;;;;;;;;;;5054975;28;20039;-63
2021/04/17 04:08:32;;;;;;;13.50;5.90;;;;;;;;;;5054821;28;20473;-63
2021/04/17 04:10:58;;;;;;;11.43;5.23;;;;;;;;;;5054921;28;20037;-63
2021/04/17 04:13:23;;;;;;;13.83;5.83;;;;;;;;;;5054687;28;20071;-63
2021/04/17 04:15:49;;;;;;;16.30;6.13;;;;;;;;;;5054854;28;20036;-63
2021/04/17 04:18:14;;;;;;;13.17;5.53;;;;;;;;;;5054586;28;20044;-63
2021/04/17 04:20:39;;;;;;;13.43;5.90;;;;;;;;;;5054724;28;20433;-63
2021/04/17 04:23:05;;;;;;;12.43;6.40;;;;;;;;;;5053960;28;20127;-63
2021/04/17 04:25:30;;;;;;;16.57;6.50;;;;;;;;;;5054479;28;20044;-63
2021/04/17 04:27:56;;;;;;;16.20;6.23;;;;;;;;;;5054226;28;20017;-63
2021/04/17 04:30:22;;;;;;;10.77;5.20;;;;;;;;;;5054395;28;20035;-64
2021/04/17 04:32:47;;;;;;;12.20;5.57;;;;;;;;;;5054380;28;20029;-63
2021/04/17 04:35:12;;;;;;;12.33;5.50;;;;;;;;;;5054419;28;20017;-64
2021/04/17 04:37:38;;;;;;;13.03;5.50;;;;;;;;;;5054302;28;20095;-63
2021/04/17 04:40:04;;;;;;;11.83;5.63;;;;;;;;;;5053814;28;20496;-63
2021/04/17 04:42:30;;;;;;;14.43;5.93;;;;;;;;;;5054200;28;20016;-63
2021/04/17 04:44:55;;;;;;;15.67;6.00;;;;;;;;;;5054218;28;20025;-63
2021/04/17 04:47:20;;;;;;;16.30;5.53;;;;;;;;;;5054175;28;20465;-63
2021/04/17 04:49:46;;;;;;;16.60;5.37;;;;;;;;;;5054171;28;20017;-63
2021/04/17 04:52:11;;;;;;;17.93;6.50;;;;;;;;;;5054125;28;20025;-63
2021/04/17 04:54:36;;;;;;;13.17;5.63;;;;;;;;;;5053907;28;20040;-63
2021/04/17 04:57:01;;;;;;;15.80;5.50;;;;;;;;;;5053739;28;20568;-63
2021/04/17 04:59:27;;;;;;;15.80;6.17;;;;;;;;;;5053797;28;20108;-63
2021/04/17 05:01:52;;;;;;;14.27;5.57;;;;;;;;;;5053969;28;20047;-63
2021/04/17 05:04:17;;;;;;;13.50;5.90;;;;;;;;;;5053711;28;20557;-63
2021/04/17 05:06:42;;;;;;;16.53;6.67;;;;;;;;;;5053797;28;20078;-63
2021/04/17 05:09:08;;;;;;;17.70;6.50;;;;;;;;;;5053408;28;20044;-63
2021/04/17 05:11:33;;;;;;;15.43;5.07;;;;;;;;;;5054077;28;20013;-63
2021/04/17 05:13:59;;;;;;;15.43;5.77;;;;;;;;;;5053441;28;20114;-63
2021/04/17 05:16:24;;;;;;;11.27;5.37;;;;;;;;;;5053534;28;20037;-63
2021/04/17 05:18:49;;;;;;;14.00;6.23;;;;;;;;;;5053532;28;20017;-63
2021/04/17 05:21:15;;;;;;;17.17;6.10;;;;;;;;;;5053535;28;20025;-63
2021/04/17 05:23:40;;;;;;;15.70;6.20;;;;;;;;;;5050901;28;20473;-63
2021/04/17 05:26:05;;;;;;;16.17;5.93;;;;;;;;;;5051775;28;20025;-63
2021/04/17 05:28:30;;;;;;;13.30;5.60;;;;;;;;;;5052817;28;20044;-63
2021/04/17 05:30:56;;;;;;;14.10;5.77;;;;;;;;;;5053202;28;20037;-63
2021/04/17 05:33:21;;;;;;;16.17;5.93;;;;;;;;;;5052476;28;20028;-63
2021/04/17 05:35:46;;;;;;;11.23;5.43;;;;;;;;;;5052591;28;20028;-63
2021/04/17 05:38:12;;;;;;;15.63;5.63;;;;;;;;;;5052709;28;20045;-63
2021/04/17 05:40:37;;;;;;;17.17;6.10;;;;;;;;;;5053288;28;20132;-63
2021/04/17 05:43:02;;;;;;;15.87;6.23;;;;;;;;;;5053224;28;20385;-63
2021/04/17 05:45:29;;;;;;;13.17;5.83;;;;;;;;;;5052919;28;20481;-63
2021/04/17 05:47:54;;;;;;;15.83;6.10;;;;;;;;;;5053171;28;20021;-63
2021/04/17 05:50:19;;;;;;;11.23;5.27;;;;;;;;;;5053160;28;20444;-63
2021/04/17 05:52:45;;;;;;;9.27;4.73;;;;;;;;;;5053180;28;20036;-64
2021/04/17 05:55:11;;;;;;;13.90;5.50;;;;;;;;;;5053012;28;20017;-63
2021/04/17 05:57:36;;;;;;;13.80;4.97;;;;;;;;;;5053069;28;20048;-64
2021/04/17 06:00:02;;;;;;;10.80;4.32;;;;;;;;;;5052955;28;20033;-64
2021/04/17 06:02:28;;;;;;;8.68;4.45;;;;;;;;;;5052755;28;20032;-64
2021/04/17 06:04:53;;;;;;;6.13;3.42;;;;;;;;;;5052929;28;20377;-64
2021/04/17 06:07:18;;;;;;;7.68;3.35;;;;;;;;;;5053232;28;20087;-65
2021/04/17 06:09:43;;;;;;;4.43;2.50;;;;;;;;;;5053229;28;20066;-65
2021/04/17 06:12:09;;;;;;;7.63;2.78;;;;;;;;;;5052959;28;20520;-65
2021/04/17 06:14:34;;;;;;;163.73;9.63;;;;;;;;;;5052462;28;20036;-65
2021/04/17 06:16:59;;;;;;;131.45;7.75;;;;;;;;;;5052847;28;20029;-65
2021/04/17 06:19:25;;;;;;;70.70;5.78;;;;;;;;;;5052715;28;20409;-63
2021/04/17 06:21:50;;;;;;;10.13;2.65;;;;;;;;;;5052654;28;20040;-63
2021/04/17 06:24:15;;;;;;;38.30;3.80;;;;;;;;;;5052567;28;20024;-63
2021/04/17 06:26:42;;;;;;;5.63;2.85;;;;;;;;;;5052945;28;20495;-63
2021/04/17 06:29:07;;;;;;;5.65;2.10;;;;;;;;;;5052791;28;20037;-63
2021/04/17 06:31:33;;;;;;;7.07;2.55;;;;;;;;;;5052732;28;20100;-63
2021/04/17 06:33:58;;;;;;;6.13;2.30;;;;;;;;;;5052717;28;20025;-63
2021/04/17 06:36:23;;;;;;;9.65;2.28;;;;;;;;;;5052645;28;20115;-63
2021/04/17 06:38:48;;;;;;;6.28;2.50;;;;;;;;;;5052550;28;20029;-63
2021/04/17 06:41:14;;;;;;;6.40;2.38;;;;;;;;;;5051452;28;20060;-63
2021/04/17 06:43:41;;;;;;;3.58;2.08;;;;;;;;;;5052565;28;20457;-63
2021/04/17 06:46:07;;;;;;;5.05;2.58;;;;;;;;;;5054047;28;20017;-63
2021/04/17 06:48:32;;;;;;;4.78;2.53;;;;;;;;;;5056272;28;20033;-64
2021/04/17 06:50:58;;;;;;;5.53;2.05;;;;;;;;;;5056450;28;20045;-64
2021/04/17 06:53:25;;;;;;;6.00;2.05;;;;;;;;;;5056223;28;20021;-64
2021/04/17 06:55:50;;;;;;;5.95;2.65;;;;;;;;;;5056105;28;20039;-64
2021/04/17 06:58:16;;;;;;;5.32;2.63;;;;;;;;;;5055716;28;20041;-64
2021/04/17 07:00:42;;;;;;;4.32;2.10;;;;;;;;;;5055595;28;20400;-64
2021/04/17 07:03:07;;;;;;;4.03;2.00;;;;;;;;;;5056060;28;20032;-64
2021/04/17 07:05:32;;;;;;;5.70;2.45;;;;;;;;;;5056135;28;20040;-64
2021/04/17 07:08:00;;;;;;;3.47;2.33;;;;;;;;;;5055739;28;20381;-64
2021/04/17 07:10:25;;;;;;;6.22;2.70;;;;;;;;;;5055729;28;20389;-64
2021/04/17 07:13:04;;;;;;;3.53;2.33;;;;;;;;;;5056011;28;20040;-64
2021/04/17 07:15:32;;;;;;;7.10;2.50;;;;;;;;;;5055919;28;20075;-64
2021/04/17 07:17:58;;;;;;;4.45;2.60;;;;;;;;;;5055866;28;20037;-64
2021/04/17 07:20:26;;;;;;;5.32;2.40;;;;;;;;;;5055217;28;20027;-64
2021/04/17 07:22:51;;;;;;;4.07;2.63;;;;;;;;;;5055660;28;20029;-64
2021/04/17 07:25:18;;;;;;;5.22;3.00;;;;;;;;;;5054321;28;20036;-65
2021/04/17 07:27:44;;;;;;;4.43;2.35;;;;;;;;;;5055713;28;20021;-64
2021/04/17 07:30:16;;;;;;;4.57;3.10;;;;;;;;;;5055485;28;20059;-64
2021/04/17 07:32:42;;;;;;;5.78;3.80;;;;;;;;;;5055594;28;20078;-65
2021/04/17 07:35:21;;;;;;;7.15;3.88;;;;;;;;;;5055480;28;20021;-64
2021/04/17 07:37:48;;;;;;;8.93;4.13;;;;;;;;;;5055595;28;20044;-65
2021/04/17 07:40:25;;;;;;;6.72;4.68;;;;;;;;;;5054726;28;20053;-65
2021/04/17 07:42:51;;;;;;;8.07;4.50;;;;;;;;;;5055080;28;20481;-65
2021/04/17 07:45:18;;;;;;;5.85;4.00;;;;;;;;;;5054972;28;20519;-65
2021/04/17 07:47:44;;;;;;;6.70;4.35;;;;;;;;;;5055385;28;20076;-65
2021/04/17 07:50:11;;;;;;;8.75;4.15;;;;;;;;;;5055260;28;20497;-65
2021/04/17 07:52:36;;;;;;;8.52;4.50;;;;;;;;;;5055200;28;20056;-65
2021/04/17 07:55:09;;;;;;;5.55;3.70;;;;;;;;;;5055099;28;20060;-65
2021/04/17 07:57:35;;;;;;;7.05;4.60;;;;;;;;;;5054346;28;20045;-65
2021/04/17 08:00:01;;;;;;;8.80;5.22;;;;;;;;;;5057609;28;20036;-65
2021/04/17 08:02:26;;;;;;;10.23;5.80;;;;;;;;;;5053024;28;20421;-65
2021/04/17 08:04:52;;;;;;;11.10;5.95;;;;;;;;;;5052361;28;20029;-65
2021/04/17 08:07:18;;;;;;;8.13;4.97;;;;;;;;;;5051829;28;20037;-65
2021/04/17 08:09:44;;;;;;;10.18;5.45;;;;;;;;;;5052378;28;20087;-65
2021/04/17 08:12:10;;;;;;;8.43;5.63;;;;;;;;;;5052404;28;20106;-65
2021/04/17 08:14:36;;;;;;;10.40;5.32;;;;;;;;;;5052623;28;20036;-66
2021/04/17 08:17:01;;;;;;;12.13;5.43;;;;;;;;;;5052477;28;20392;-66
2021/04/17 08:19:26;;;;;;;7.60;4.95;;;;;;;;;;5037709;28;20033;-65
2021/04/17 08:21:52;;;;;;;8.35;5.30;;;;;;;;;;5044856;28;20068;-65
2021/04/17 08:24:25;;;;;;;7.13;5.00;;;;;;;;;;5045955;28;20037;-65
2021/04/17 08:26:54;;;;;;;7.45;4.78;;;;;;;;;;5046362;28;20049;-65
2021/04/17 08:29:42;;;;;;;7.72;5.00;;;;;;;;;;5046546;28;20068;-65
2021/04/17 08:32:21;;;;;;;9.25;5.72;;;;;;;;;;5025505;28;20091;-65
2021/04/17 08:34:56;;;;;;;7.97;4.60;;;;;;;;;;5045781;28;20489;-66
2021/04/17 08:37:22;;;;;;;7.38;5.63;;;;;;;;;;5046604;28;20438;-66
2021/04/17 08:39:51;;;;;;;7.65;5.20;;;;;;;;;;5046346;28;20063;-66
2021/04/17 08:42:16;;;;;;;8.05;4.93;;;;;;;;;;5047376;28;20020;-66
2021/04/17 08:44:44;;;;;;;8.15;4.55;;;;;;;;;;5047458;28;20033;-66
2021/04/17 08:47:10;;;;;;;11.20;4.40;;;;;;;;;;5048308;28;20122;-66
2021/04/17 08:49:37;;;;;;;7.40;4.80;;;;;;;;;;5048276;28;20535;-66
2021/04/17 08:52:09;;;;;;;8.65;4.65;;;;;;;;;;5048667;28;20029;-66
2021/04/17 08:54:35;;;;;;;7.63;4.63;;;;;;;;;;5048862;28;20035;-66
2021/04/17 08:57:03;;;;;;;7.60;4.90;;;;;;;;;;5040294;28;20025;-66
2021/04/17 08:59:39;;;;;;;8.35;4.53;;;;;;;;;;5046016;28;20041;-66
2021/04/17 09:02:12;;;;;;;7.93;4.50;;;;;;;;;;5045768;28;20033;-66
2021/04/17 09:04:55;;;;;;;7.15;4.80;;;;;;;;;;5045941;28;20037;-66
2021/04/17 09:07:21;;;;;;;8.25;4.70;;;;;;;;;;5045341;28;20130;-66
2021/04/17 09:09:46;;;;;;;7.85;4.05;;;;;;;;;;5044962;28;20450;-66
2021/04/17 09:12:11;;;;;;;8.02;4.53;;;;;;;;;;5045335;28;20036;-66
2021/04/17 09:14:37;;;;;;;8.37;4.47;;;;;;;;;;5045875;28;20440;-66
2021/04/17 09:17:03;;;;;;;7.22;4.28;;;;;;;;;;5031520;28;20270;-66
2021/04/17 09:19:37;;;;;;;5.93;4.50;;;;;;;;;;5041795;28;20059;-66
2021/04/17 09:22:03;;;;;;;6.57;4.03;;;;;;;;;;5041654;28;20148;-66
2021/04/17 09:24:28;;;;;;;8.00;4.65;;;;;;;;;;5041224;28;20047;-66
2021/04/17 09:26:54;;;;;;;11.10;4.47;;;;;;;;;;5044536;28;20040;-65
2021/04/17 09:29:19;;;;;;;8.88;4.72;;;;;;;;;;5044719;28;20025;-66
2021/04/17 09:31:45;;;;;;;6.45;4.20;;;;;;;;;;5043871;28;20091;-66
2021/04/17 09:34:13;;;;;;;7.38;4.20;;;;;;;;;;5045004;28;20107;-66
2021/04/17 09:36:38;;;;;;;6.50;3.95;;;;;;;;;;5044813;28;20497;-66
2021/04/17 09:39:26;;;;;;;8.77;3.60;;;;;;;;;;5044476;28;20107;-65
2021/04/17 09:41:52;;;;;;;6.43;4.13;;;;;;;;;;5035836;28;20051;-66
2021/04/17 09:44:19;;;;;;;5.85;4.13;;;;;;;;;;5037551;28;20405;-66
2021/04/17 09:46:44;;;;;;;5.65;2.53;;;;;;;;;;5042513;28;20102;-65
2021/04/17 09:49:10;;;;;;;6.60;2.97;;;;;;;;;;5041165;28;20029;-66
2021/04/17 09:51:35;;;;;;;5.93;2.97;;;;;;;;;;5041992;28;20043;-65
2021/04/17 09:54:02;;;;;;;4.85;3.35;;;;;;;;;;5041719;28;20519;-66
2021/04/17 09:56:35;;;;;;;7.88;3.80;;;;;;;;;;5041621;28;20029;-66
2021/04/17 09:59:12;;;;;;;7.90;4.13;;;;;;;;;;5033754;28;20037;-66
2021/04/17 10:01:37;;;;;;;6.95;4.25;;;;;;;;;;5041761;28;20106;-65
2021/04/17 10:04:03;;;;;;;7.65;3.60;;;;;;;;;;5039513;28;20116;-65
2021/04/17 10:06:29;;;;;;;6.13;3.55;;;;;;;;;;5041945;28;20515;-66
2021/04/17 10:08:56;;;;;;;6.55;3.50;;;;;;;;;;5041715;28;20663;-65
2021/04/17 10:11:28;;;;;;;4.00;2.17;;;;;;;;;;5041204;28;20037;-65
2021/04/17 10:13:54;;;;;;;4.97;3.50;;;;;;;;;;5040782;28;20513;-65
2021/04/17 10:16:25;;;;;;;4.70;3.25;;;;;;;;;;5041469;28;20037;-65
2021/04/17 10:18:50;;;;;;;4.70;2.90;;;;;;;;;;5041777;28;21099;-65
2021/04/17 10:21:16;;;;;;;8.05;3.40;;;;;;;;;;5043290;28;20032;-65
2021/04/17 10:23:41;;;;;;;8.27;4.18;;;;;;;;;;5045037;28;20033;-65
2021/04/17 10:26:08;;;;;;;5.82;3.38;;;;;;;;;;5045667;28;20091;-65
2021/04/17 10:28:34;;;;;;;6.35;3.30;;;;;;;;;;5045662;28;20059;-65
2021/04/17 10:31:19;;;;;;;6.43;3.90;;;;;;;;;;5045661;28;20025;-65
2021/04/17 10:33:45;;;;;;;;;;;;;;;;;;5044565;28;20065;-65
2021/04/17 10:36:18;;;;;;;6.83;4.23;;;;;;;;;;5043998;28;20051;-64
2021/04/17 10:38:43;;;;;;;6.20;3.70;;;;;;;;;;5044906;28;20115;-64
2021/04/17 10:41:13;;;;;;;6.70;3.67;;;;;;;;;;5044957;28;20028;-64
2021/04/17 10:43:38;;;;;;;5.63;3.63;;;;;;;;;;5044048;28;20548;-66
2021/04/17 10:46:05;;;;;;;5.72;3.47;;;;;;;;;;5045352;28;20028;-66
2021/04/17 10:48:41;;;;;;;6.88;3.30;;;;;;;;;;5045124;28;20060;-66
2021/04/17 10:51:08;;;;;;;9.15;3.75;;;;;;;;;;5038386;28;20029;-66
2021/04/17 10:53:44;;;;;;;9.07;4.10;;;;;;;;;;5045319;28;20037;-66
2021/04/17 10:56:16;;;;;;;7.80;3.97;;;;;;;;;;5041846;28;20040;-66
2021/04/17 10:58:46;;;;;;;8.10;3.80;;;;;;;;;;5045062;28;20055;-66
2021/04/17 11:01:11;;;;;;;6.53;3.88;;;;;;;;;;5045400;28;20107;-66
2021/04/17 11:03:42;;;;;;;10.70;4.78;;;;;;;;;;5044134;28;20044;-66
2021/04/17 11:06:20;;;;;;;6.35;3.80;;;;;;;;;;5044578;28;20515;-66
2021/04/17 11:08:47;;;;;;;8.82;3.63;;;;;;;;;;5045538;28;20049;-66
2021/04/17 11:11:13;;;;;;;9.30;4.30;;;;;;;;;;5045233;28;20452;-66
2021/04/17 11:13:43;;;;;;;9.85;4.00;;;;;;;;;;5044544;28;20116;-65
2021/04/17 11:16:09;;;;;;;7.47;4.15;;;;;;;;;;5044032;28;20060;-65
2021/04/17 11:18:36;;;;;;;10.40;4.00;;;;;;;;;;5044707;28;20063;-65
2021/04/17 11:21:10;;;;;;;9.80;4.50;;;;;;;;;;5044685;28;20025;-66
2021/04/17 11:23:47;;;;;;;10.23;3.92;;;;;;;;;;5044615;28;20090;-65
2021/04/17 11:26:15;;;;;;;7.55;3.83;;;;;;;;;;5043888;28;20033;-66
2021/04/17 11:28:42;;;;;;;10.02;4.40;;;;;;;;;;5044656;28;20041;-66
2021/04/17 11:31:08;;;;;;;9.63;4.22;;;;;;;;;;5044640;28;20454;-65
2021/04/17 11:33:33;;;;;;;9.63;4.50;;;;;;;;;;5043206;28;20024;-66
2021/04/17 11:35:59;;;;;;;8.23;4.45;;;;;;;;;;5043954;28;20362;-67
2021/04/17 11:38:24;;;;;;;6.90;3.65;;;;;;;;;;5044773;28;20033;-65
2021/04/17 11:40:50;;;;;;;8.63;4.35;;;;;;;;;;5043966;28;20107;-67
2021/04/17 11:43:15;;;;;;;9.70;4.32;;;;;;;;;;5043606;28;20043;-65
2021/04/17 11:45:40;;;;;;;7.95;4.03;;;;;;;;;;5043211;28;20037;-66
2021/04/17 11:48:06;;;;;;;8.05;4.07;;;;;;;;;;5043468;28;20039;-66
2021/04/17 11:50:32;;;;;;;7.93;4.00;;;;;;;;;;5044814;28;20047;-66
2021/04/17 11:52:58;;;;;;;9.95;4.25;;;;;;;;;;5043720;28;20064;-65
2021/04/17 11:55:23;;;;;;;7.18;3.75;;;;;;;;;;5043838;28;20146;-65
2021/04/17 11:57:49;;;;;;;10.93;4.30;;;;;;;;;;5043408;28;20037;-66
2021/04/17 12:00:15;;;;;;;9.43;3.92;;;;;;;;;;5043807;28;20107;-65
2021/04/17 12:02:40;;;;;;;9.07;4.28;;;;;;;;;;5044330;28;20029;-66
2021/04/17 12:05:06;;;;;;;8.18;4.35;;;;;;;;;;5043772;28;20033;-65
2021/04/17 12:07:31;;;;;;;9.20;4.22;;;;;;;;;;5042935;28;20045;-66
2021/04/17 12:09:56;;;;;;;7.10;3.92;;;;;;;;;;5043266;28;20036;-66
2021/04/17 12:12:22;;;;;;;8.27;4.10;;;;;;;;;;5043879;28;20028;-66
2021/04/17 12:14:47;;;;;;;8.70;4.07;;;;;;;;;;5043593;28;20225;-67
2021/04/17 12:17:12;;;;;;;8.45;4.03;;;;;;;;;;5043274;28;20017;-65
2021/04/17 12:19:38;;;;;;;6.03;3.78;;;;;;;;;;5042492;28;20037;-65
2021/04/17 12:22:03;;;;;;;7.07;3.72;;;;;;;;;;5043396;28;20083;-65
2021/04/17 12:24:28;;;;;;;10.15;3.90;;;;;;;;;;5042662;28;20435;-66
2021/04/17 12:26:54;;;;;;;12.60;4.35;;;;;;;;;;5042674;28;20382;-66
2021/04/17 12:29:19;;;;;;;8.80;4.40;;;;;;;;;;5043062;28;20039;-66
2021/04/17 12:31:45;;;;;;;9.30;4.97;;;;;;;;;;5041478;28;20128;-66
2021/04/17 12:34:10;;;;;;;8.70;4.72;;;;;;;;;;5043401;28;20575;-66
2021/04/17 12:36:35;;;;;;;11.77;4.80;;;;;;;;;;5043536;28;20037;-65
2021/04/17 12:39:01;;;;;;;129.23;80.40;;;;;;;;;;5042529;28;20083;-65
2021/04/17 12:41:26;;;;;;;11.45;5.20;;;;;;;;;;5043189;28;20040;-65
2021/04/17 12:43:51;;;;;;;7.00;4.43;;;;;;;;;;5042631;28;20124;-65
2021/04/17 12:46:17;;;;;;;7.53;4.22;;;;;;;;;;5042698;28;20025;-66
2021/04/17 12:48:43;;;;;;;7.78;4.32;;;;;;;;;;5041741;28;20107;-66
2021/04/17 12:51:08;;;;;;;9.15;4.40;;;;;;;;;;5042011;28;20029;-65
2021/04/17 12:53:33;;;;;;;6.10;3.53;;;;;;;;;;5043496;28;20017;-65
2021/04/17 12:55:59;;;;;;;11.32;4.82;;;;;;;;;;5042883;28;20517;-65
2021/04/17 12:58:24;;;;;;;8.73;4.63;;;;;;;;;;5042350;28;20033;-65
2021/04/17 13:00:50;;;;;;;7.43;4.45;;;;;;;;;;5041732;28;20029;-66
2021/04/17 13:03:16;;;;;;;7.60;4.10;;;;;;;;;;5042875;28;20040;-66
2021/04/17 13:05:41;;;;;;;8.15;4.53;;;;;;;;;;5043037;28;20045;-65
2021/04/17 13:08:06;;;;;;;7.30;4.22;;;;;;;;;;5042217;28;20605;-66
2021/04/17 13:10:32;;;;;;;7.93;4.40;;;;;;;;;;5042376;28;20028;-65
2021/04/17 13:12:57;;;;;;;8.65;5.25;;;;;;;;;;5041326;28;20033;-65
2021/04/17 13:15:23;;;;;;;7.10;4.15;;;;;;;;;;5042689;28;20017;-66
2021/04/17 13:17:48;;;;;;;7.85;4.38;;;;;;;;;;5041943;28;20021;-66
2021/04/17 13:20:13;;;;;;;10.00;5.38;;;;;;;;;;5041868;28;20133;-65
2021/04/17 13:22:39;;;;;;;8.07;3.47;;;;;;;;;;5041579;28;20107;-65
2021/04/17 13:25:04;;;;;;;7.00;3.80;;;;;;;;;;5040482;28;20086;-65
2021/04/17 13:27:30;;;;;;;6.60;3.72;;;;;;;;;;5041167;28;20412;-65
2021/04/17 13:29:55;;;;;;;10.95;4.13;;;;;;;;;;5041653;28;20571;-66
2021/04/17 13:32:20;;;;;;;9.60;3.90;;;;;;;;;;5041305;28;20040;-66
2021/04/17 13:34:45;;;;;;;7.75;4.55;;;;;;;;;;5041860;28;20040;-66
2021/04/17 13:37:11;;;;;;;7.50;4.30;;;;;;;;;;5041769;28;20033;-66
2021/04/17 13:39:36;;;;;;;7.57;4.35;;;;;;;;;;5041000;28;20114;-65
2021/04/17 13:42:02;;;;;;;9.75;4.00;;;;;;;;;;5042004;28;20029;-66
2021/04/17 13:44:27;;;;;;;7.15;3.90;;;;;;;;;;5041778;28;20017;-66
2021/04/17 13:46:52;;;;;;;10.35;4.05;;;;;;;;;;5041780;28;20484;-66
2021/04/17 13:49:18;;;;;;;12.05;4.88;;;;;;;;;;5041681;28;20033;-65
2021/04/17 13:51:43;;;;;;;10.45;4.38;;;;;;;;;;5041544;28;20087;-65
2021/04/17 13:54:08;;;;;;;7.25;4.05;;;;;;;;;;5041526;28;20047;-65
2021/04/17 13:56:33;;;;;;;7.25;4.20;;;;;;;;;;5041765;28;20033;-65
2021/04/17 13:58:59;;;;;;;9.13;4.63;;;;;;;;;;5041623;28;20021;-65
2021/04/17 14:01:24;;;;;;;8.60;4.20;;;;;;;;;;5041221;28;20491;-65
2021/04/17 14:03:49;;;;;;;8.00;4.30;;;;;;;;;;5041846;28;20033;-66
2021/04/17 14:06:15;;;;;;;10.43;4.50;;;;;;;;;;5041900;28;20025;-65
2021/04/17 14:08:40;;;;;;;9.02;4.47;;;;;;;;;;5042158;28;20826;-65
2021/04/17 14:11:07;;;;;;;9.68;4.78;;;;;;;;;;5041620;28;20040;-65
2021/04/17 14:13:33;;;;;;;10.48;5.00;;;;;;;;;;5042005;28;20491;-65
2021/04/17 14:15:58;;;;;;;14.23;4.63;;;;;;;;;;5040598;28;20021;-66
2021/04/17 14:18:23;;;;;;;8.85;4.75;;;;;;;;;;5041808;28;20063;-65
2021/04/17 14:20:48;;;;;;;9.70;4.95;;;;;;;;;;5040814;28;20484;-65
2021/04/17 14:23:16;;;;;;;10.13;5.15;;;;;;;;;;5041982;28;20041;-65
2021/04/17 14:25:41;;;;;;;12.80;5.00;;;;;;;;;;5041454;28;20036;-66
2021/04/17 14:28:06;;;;;;;7.50;4.82;;;;;;;;;;5041503;28;20032;-66
2021/04/17 14:30:32;;;;;;;7.85;4.65;;;;;;;;;;5035372;28;20017;-66
2021/04/17 14:32:57;;;;;;;9.60;4.72;;;;;;;;;;5041147;28;20059;-65